sensor_id;sensor_type;location;lat;lon;timestamp;pressure;altitude;pressure_sealevel;temperature;humidity
53041;BME280;39326;42.650;23.248;2022-09-27T00:02:21;91740.88;;;13.75;87.41
53041;BME280;39326;42.650;23.248;2022-09-27T00:04:46;91719.72;;;13.64;88.07
53041;BME280;39326;42.650;23.248;2022-09-27T00:07:12;91725.25;;;13.73;86.95
53041;BME280;39326;42.650;23.248;2022-09-27T00:09:37;91724.88;;;13.71;86.95
53041;BME280;39326;42.650;23.248;2022-09-27T00:12:03;91735.47;;;13.62;87.74
53041;BME280;39326;42.650;23.248;2022-09-27T00:14:28;91749.75;;;13.72;87.15
53041;BME280;39326;42.650;23.248;2022-09-27T00:16:54;91753.97;;;13.56;87.99
53041;BME280;39326;42.650;23.248;2022-09-27T00:19:21;91762.66;;;13.77;86.66
53041;BME280;39326;42.650;23.248;2022-09-27T00:21:48;91756.09;;;13.78;86.93
53041;BME280;39326;42.650;23.248;2022-09-27T00:24:17;91760.41;;;13.59;87.98
53041;BME280;39326;42.650;23.248;2022-09-27T00:26:43;91761.56;;;13.74;87.21
53041;BME280;39326;42.650;23.248;2022-09-27T00:29:11;91757.88;;;13.84;86.75
53041;BME280;39326;42.650;23.248;2022-09-27T00:31:37;91743.72;;;13.84;86.08
53041;BME280;39326;42.650;23.248;2022-09-27T00:34:03;91752.88;;;13.87;86.31
53041;BME280;39326;42.650;23.248;2022-09-27T00:36:30;91736.88;;;13.83;86.04
53041;BME280;39326;42.650;23.248;2022-09-27T00:38:57;91724.97;;;13.84;86.42
53041;BME280;39326;42.650;23.248;2022-09-27T00:41:27;91729.22;;;13.81;86.25
53041;BME280;39326;42.650;23.248;2022-09-27T00:43:55;91735.47;;;13.62;87.72
53041;BME280;39326;42.650;23.248;2022-09-27T00:46:31;91722.22;;;13.71;87.30
53041;BME280;39326;42.650;23.248;2022-09-27T00:51:31;91721.22;;;13.65;87.37
53041;BME280;39326;42.650;23.248;2022-09-27T00:53:57;91715.09;;;13.65;87.37
53041;BME280;39326;42.650;23.248;2022-09-27T00:56:27;91696.09;;;13.59;87.55
53041;BME280;39326;42.650;23.248;2022-09-27T00:59:16;91702.31;;;13.56;88.14
53041;BME280;39326;42.650;23.248;2022-09-27T01:01:43;91697.28;;;13.58;87.25
53041;BME280;39326;42.650;23.248;2022-09-27T01:04:11;91700.41;;;13.56;87.64
53041;BME280;39326;42.650;23.248;2022-09-27T01:06:38;91709.44;;;13.63;87.24
53041;BME280;39326;42.650;23.248;2022-09-27T01:09:05;91713.94;;;13.66;86.99
53041;BME280;39326;42.650;23.248;2022-09-27T01:23:08;91698.16;;;13.55;88.04
53041;BME280;39326;42.650;23.248;2022-09-27T01:30:58;91714.66;;;13.21;89.73
53041;BME280;39326;42.650;23.248;2022-09-27T01:33:37;91713.16;;;13.20;89.57
53041;BME280;39326;42.650;23.248;2022-09-27T01:43:47;91724.63;;;13.37;88.08
53041;BME280;39326;42.650;23.248;2022-09-27T01:46:26;91721.44;;;13.42;87.79
53041;BME280;39326;42.650;23.248;2022-09-27T01:48:56;91722.09;;;13.46;87.83
53041;BME280;39326;42.650;23.248;2022-09-27T01:51:28;91712.38;;;13.52;87.48
53041;BME280;39326;42.650;23.248;2022-09-27T01:53:58;91680.16;;;13.39;88.08
53041;BME280;39326;42.650;23.248;2022-09-27T01:56:39;91687.78;;;13.41;88.03
53041;BME280;39326;42.650;23.248;2022-09-27T01:59:27;91687.88;;;13.37;88.84
53041;BME280;39326;42.650;23.248;2022-09-27T02:01:58;91683.88;;;13.13;90.27
53041;BME280;39326;42.650;23.248;2022-09-27T02:04:27;91690.72;;;13.30;89.28
53041;BME280;39326;42.650;23.248;2022-09-27T02:07:19;91678.78;;;13.18;89.68
53041;BME280;39326;42.650;23.248;2022-09-27T02:09:51;91678.91;;;13.27;89.33
53041;BME280;39326;42.650;23.248;2022-09-27T02:12:22;91666.91;;;13.03;90.74
53041;BME280;39326;42.650;23.248;2022-09-27T02:15:11;91668.81;;;13.19;89.87
53041;BME280;39326;42.650;23.248;2022-09-27T02:17:52;91649.06;;;13.13;89.87
53041;BME280;39326;42.650;23.248;2022-09-27T02:20:30;91640.19;;;13.16;89.79
53041;BME280;39326;42.650;23.248;2022-09-27T02:25:34;91630.59;;;13.02;90.50
53041;BME280;39326;42.650;23.248;2022-09-27T02:28:21;91619.31;;;13.11;89.90
53041;BME280;39326;42.650;23.248;2022-09-27T02:30:49;91620.19;;;13.20;89.03
53041;BME280;39326;42.650;23.248;2022-09-27T02:33:15;91611.16;;;13.14;89.54
53041;BME280;39326;42.650;23.248;2022-09-27T02:35:42;91620.63;;;13.19;89.14
53041;BME280;39326;42.650;23.248;2022-09-27T02:38:07;91605.50;;;13.12;89.87
53041;BME280;39326;42.650;23.248;2022-09-27T02:40:35;91619.56;;;13.00;90.40
53041;BME280;39326;42.650;23.248;2022-09-27T02:43:03;91628.03;;;12.98;90.70
53041;BME280;39326;42.650;23.248;2022-09-27T02:52:16;91636.88;;;12.95;90.65
53041;BME280;39326;42.650;23.248;2022-09-27T02:57:29;91643.28;;;13.14;89.78
53041;BME280;39326;42.650;23.248;2022-09-27T03:00:07;91640.81;;;13.07;90.26
53041;BME280;39326;42.650;23.248;2022-09-27T03:05:04;91609.78;;;13.10;89.78
53041;BME280;39326;42.650;23.248;2022-09-27T03:07:31;91610.00;;;13.15;89.93
53041;BME280;39326;42.650;23.248;2022-09-27T03:09:57;91586.50;;;13.07;89.70
53041;BME280;39326;42.650;23.248;2022-09-27T03:12:22;91596.03;;;13.24;89.68
53041;BME280;39326;42.650;23.248;2022-09-27T03:15:00;91587.06;;;13.30;88.90
53041;BME280;39326;42.650;23.248;2022-09-27T03:17:26;91577.88;;;13.15;89.83
53041;BME280;39326;42.650;23.248;2022-09-27T03:19:52;91579.84;;;13.27;89.07
53041;BME280;39326;42.650;23.248;2022-09-27T03:22:17;91571.31;;;13.32;88.86
53041;BME280;39326;42.650;23.248;2022-09-27T03:24:43;91582.34;;;13.35;89.04
53041;BME280;39326;42.650;23.248;2022-09-27T03:27:09;91575.91;;;13.32;89.18
53041;BME280;39326;42.650;23.248;2022-09-27T03:29:35;91584.50;;;13.40;88.27
53041;BME280;39326;42.650;23.248;2022-09-27T03:32:02;91572.72;;;13.37;88.66
53041;BME280;39326;42.650;23.248;2022-09-27T03:34:27;91568.78;;;13.42;88.44
53041;BME280;39326;42.650;23.248;2022-09-27T03:36:53;91566.19;;;13.38;88.16
53041;BME280;39326;42.650;23.248;2022-09-27T03:39:18;91563.91;;;13.08;90.46
53041;BME280;39326;42.650;23.248;2022-09-27T03:41:44;91557.03;;;13.23;89.27
53041;BME280;39326;42.650;23.248;2022-09-27T03:44:09;91571.88;;;13.11;90.33
53041;BME280;39326;42.650;23.248;2022-09-27T03:46:35;91583.88;;;13.19;90.13
53041;BME280;39326;42.650;23.248;2022-09-27T03:49:00;91583.69;;;13.26;89.37
53041;BME280;39326;42.650;23.248;2022-09-27T03:51:25;91587.28;;;13.36;88.96
53041;BME280;39326;42.650;23.248;2022-09-27T03:53:51;91580.56;;;13.44;88.41
53041;BME280;39326;42.650;23.248;2022-09-27T03:56:17;91575.41;;;13.37;89.03
53041;BME280;39326;42.650;23.248;2022-09-27T03:58:42;91574.44;;;13.44;88.50
53041;BME280;39326;42.650;23.248;2022-09-27T04:01:08;91576.69;;;13.45;88.49
53041;BME280;39326;42.650;23.248;2022-09-27T04:03:34;91565.97;;;13.45;88.27
53041;BME280;39326;42.650;23.248;2022-09-27T04:06:01;91558.28;;;13.47;88.40
53041;BME280;39326;42.650;23.248;2022-09-27T04:08:26;91568.38;;;13.27;89.45
53041;BME280;39326;42.650;23.248;2022-09-27T04:10:52;91578.06;;;13.37;88.77
53041;BME280;39326;42.650;23.248;2022-09-27T04:13:17;91578.19;;;13.46;88.47
53041;BME280;39326;42.650;23.248;2022-09-27T04:15:43;91566.66;;;13.49;88.52
53041;BME280;39326;42.650;23.248;2022-09-27T04:18:09;91571.25;;;13.49;88.67
53041;BME280;39326;42.650;23.248;2022-09-27T04:20:35;91565.03;;;13.52;88.21
53041;BME280;39326;42.650;23.248;2022-09-27T04:23:00;91577.91;;;13.57;87.71
53041;BME280;39326;42.650;23.248;2022-09-27T04:25:26;91561.72;;;13.48;88.17
53041;BME280;39326;42.650;23.248;2022-09-27T04:27:51;91562.34;;;13.52;88.25
53041;BME280;39326;42.650;23.248;2022-09-27T04:30:20;91549.38;;;13.50;88.28
53041;BME280;39326;42.650;23.248;2022-09-27T04:32:46;91559.16;;;13.57;87.86
53041;BME280;39326;42.650;23.248;2022-09-27T04:35:12;91562.59;;;13.57;87.87
53041;BME280;39326;42.650;23.248;2022-09-27T04:37:57;91552.06;;;13.50;87.88
53041;BME280;39326;42.650;23.248;2022-09-27T04:40:22;91545.84;;;13.53;87.86
53041;BME280;39326;42.650;23.248;2022-09-27T04:42:48;91562.59;;;13.57;88.01
53041;BME280;39326;42.650;23.248;2022-09-27T04:45:14;91573.19;;;13.48;88.80
53041;BME280;39326;42.650;23.248;2022-09-27T04:47:46;91579.47;;;13.42;89.10
53041;BME280;39326;42.650;23.248;2022-09-27T04:50:13;91583.34;;;13.53;88.32
53041;BME280;39326;42.650;23.248;2022-09-27T04:52:39;91574.44;;;13.44;88.90
53041;BME280;39326;42.650;23.248;2022-09-27T04:55:06;91567.78;;;13.36;89.69
53041;BME280;39326;42.650;23.248;2022-09-27T04:57:32;91561.25;;;13.37;88.85
53041;BME280;39326;42.650;23.248;2022-09-27T04:59:57;91557.50;;;13.47;88.91
53041;BME280;39326;42.650;23.248;2022-09-27T05:02:25;91555.50;;;13.51;89.07
53041;BME280;39326;42.650;23.248;2022-09-27T05:04:52;91555.63;;;13.60;89.06
53041;BME280;39326;42.650;23.248;2022-09-27T05:07:17;91545.22;;;13.49;90.26
53041;BME280;39326;42.650;23.248;2022-09-27T05:09:43;91544.34;;;13.52;90.70
53041;BME280;39326;42.650;23.248;2022-09-27T05:12:09;91528.31;;;13.65;90.19
53041;BME280;39326;42.650;23.248;2022-09-27T05:14:35;91532.69;;;13.72;90.52
53041;BME280;39326;42.650;23.248;2022-09-27T05:17:01;91529.19;;;13.75;90.13
53041;BME280;39326;42.650;23.248;2022-09-27T05:19:27;91533.94;;;13.83;89.22
53041;BME280;39326;42.650;23.248;2022-09-27T05:21:52;91524.31;;;13.99;89.45
53041;BME280;39326;42.650;23.248;2022-09-27T05:24:18;91525.03;;;14.12;88.47
53041;BME280;39326;42.650;23.248;2022-09-27T05:26:43;91517.00;;;14.12;88.19
53041;BME280;39326;42.650;23.248;2022-09-27T05:29:11;91512.16;;;14.20;88.37
53041;BME280;39326;42.650;23.248;2022-09-27T05:31:36;91527.50;;;14.19;87.93
53041;BME280;39326;42.650;23.248;2022-09-27T05:34:01;91535.03;;;14.24;87.59
53041;BME280;39326;42.650;23.248;2022-09-27T05:36:27;91525.66;;;14.16;88.37
53041;BME280;39326;42.650;23.248;2022-09-27T05:38:52;91530.38;;;13.74;90.12
53041;BME280;39326;42.650;23.248;2022-09-27T05:41:18;91542.25;;;13.73;89.89
53041;BME280;39326;42.650;23.248;2022-09-27T05:43:44;91535.28;;;13.75;90.28
53041;BME280;39326;42.650;23.248;2022-09-27T05:46:10;91540.13;;;13.80;89.94
53041;BME280;39326;42.650;23.248;2022-09-27T05:48:36;91530.97;;;13.65;90.51
53041;BME280;39326;42.650;23.248;2022-09-27T05:51:01;91515.47;;;13.60;90.59
53041;BME280;39326;42.650;23.248;2022-09-27T05:53:27;91517.69;;;13.62;90.42
53041;BME280;39326;42.650;23.248;2022-09-27T05:55:53;91536.97;;;13.56;90.84
53041;BME280;39326;42.650;23.248;2022-09-27T05:58:18;91523.56;;;13.44;91.37
53041;BME280;39326;42.650;23.248;2022-09-27T06:00:44;91529.81;;;13.66;90.62
53041;BME280;39326;42.650;23.248;2022-09-27T06:03:11;91540.09;;;13.68;91.08
53041;BME280;39326;42.650;23.248;2022-09-27T06:05:38;91551.66;;;13.65;91.07
53041;BME280;39326;42.650;23.248;2022-09-27T06:08:07;91540.34;;;13.73;90.55
53041;BME280;39326;42.650;23.248;2022-09-27T06:10:33;91554.25;;;13.68;91.03
53041;BME280;39326;42.650;23.248;2022-09-27T06:13:00;91550.16;;;13.64;91.28
53041;BME280;39326;42.650;23.248;2022-09-27T06:15:27;91551.41;;;13.46;91.81
53041;BME280;39326;42.650;23.248;2022-09-27T06:17:53;91558.53;;;13.66;91.47
53041;BME280;39326;42.650;23.248;2022-09-27T06:20:19;91558.19;;;13.51;92.58
53041;BME280;39326;42.650;23.248;2022-09-27T06:22:45;91547.50;;;13.64;91.34
53041;BME280;39326;42.650;23.248;2022-09-27T06:25:10;91559.63;;;13.81;90.68
53041;BME280;39326;42.650;23.248;2022-09-27T06:27:36;91555.50;;;13.93;89.21
53041;BME280;39326;42.650;23.248;2022-09-27T06:30:03;91552.59;;;14.00;88.80
53041;BME280;39326;42.650;23.248;2022-09-27T06:32:28;91552.16;;;14.01;88.58
53041;BME280;39326;42.650;23.248;2022-09-27T06:34:53;91556.25;;;14.06;88.73
53041;BME280;39326;42.650;23.248;2022-09-27T06:37:19;91563.97;;;14.04;89.57
53041;BME280;39326;42.650;23.248;2022-09-27T06:39:44;91552.47;;;14.03;89.33
53041;BME280;39326;42.650;23.248;2022-09-27T06:42:10;91555.38;;;14.09;88.95
53041;BME280;39326;42.650;23.248;2022-09-27T06:44:35;91555.59;;;14.15;88.49
53041;BME280;39326;42.650;23.248;2022-09-27T06:47:01;91561.72;;;14.15;88.02
53041;BME280;39326;42.650;23.248;2022-09-27T06:49:26;91549.94;;;14.13;88.16
53041;BME280;39326;42.650;23.248;2022-09-27T06:51:52;91527.28;;;14.14;88.14
53041;BME280;39326;42.650;23.248;2022-09-27T06:54:18;91532.88;;;14.19;88.08
53041;BME280;39326;42.650;23.248;2022-09-27T06:56:47;91546.81;;;14.27;87.92
53041;BME280;39326;42.650;23.248;2022-09-27T06:59:13;91547.56;;;14.27;88.34
53041;BME280;39326;42.650;23.248;2022-09-27T07:02:13;91551.72;;;14.28;88.65
53041;BME280;39326;42.650;23.248;2022-09-27T07:04:39;91555.59;;;14.02;90.83
53041;BME280;39326;42.650;23.248;2022-09-27T07:07:04;91543.06;;;14.11;89.33
53041;BME280;39326;42.650;23.248;2022-09-27T07:09:30;91538.88;;;14.23;88.55
53041;BME280;39326;42.650;23.248;2022-09-27T07:11:55;91539.94;;;14.26;88.98
53041;BME280;39326;42.650;23.248;2022-09-27T07:14:21;91553.78;;;14.11;90.55
53041;BME280;39326;42.650;23.248;2022-09-27T07:16:47;91543.28;;;14.17;90.18
53041;BME280;39326;42.650;23.248;2022-09-27T07:19:12;91552.50;;;14.16;91.11
53041;BME280;39326;42.650;23.248;2022-09-27T07:21:39;91553.03;;;14.24;90.74
53041;BME280;39326;42.650;23.248;2022-09-27T07:24:05;91544.13;;;14.39;90.53
53041;BME280;39326;42.650;23.248;2022-09-27T07:26:30;91563.75;;;14.49;90.73
53041;BME280;39326;42.650;23.248;2022-09-27T07:28:55;91556.22;;;14.57;90.95
53041;BME280;39326;42.650;23.248;2022-09-27T07:31:21;91556.88;;;14.48;91.37
53041;BME280;39326;42.650;23.248;2022-09-27T07:33:48;91545.09;;;14.33;90.89
53041;BME280;39326;42.650;23.248;2022-09-27T07:36:14;91556.78;;;14.26;91.94
53041;BME280;39326;42.650;23.248;2022-09-27T07:38:39;91574.59;;;14.33;91.27
53041;BME280;39326;42.650;23.248;2022-09-27T07:41:10;91571.16;;;14.20;92.08
53041;BME280;39326;42.650;23.248;2022-09-27T07:43:38;91577.50;;;14.26;91.51
53041;BME280;39326;42.650;23.248;2022-09-27T07:46:04;91569.22;;;14.33;90.62
53041;BME280;39326;42.650;23.248;2022-09-27T07:48:30;91562.81;;;14.30;90.58
53041;BME280;39326;42.650;23.248;2022-09-27T07:50:55;91580.25;;;14.35;90.15
53041;BME280;39326;42.650;23.248;2022-09-27T07:53:20;91567.50;;;14.39;89.92
53041;BME280;39326;42.650;23.248;2022-09-27T07:55:52;91574.59;;;14.20;90.64
53041;BME280;39326;42.650;23.248;2022-09-27T07:58:19;91566.97;;;14.19;90.52
53041;BME280;39326;42.650;23.248;2022-09-27T08:00:45;91566.31;;;14.27;90.39
53041;BME280;39326;42.650;23.248;2022-09-27T08:03:15;91544.34;;;14.20;90.81
53041;BME280;39326;42.650;23.248;2022-09-27T08:05:42;91528.78;;;14.02;91.57
53041;BME280;39326;42.650;23.248;2022-09-27T08:08:08;91553.66;;;14.02;91.62
53041;BME280;39326;42.650;23.248;2022-09-27T08:10:34;91537.16;;;14.04;91.81
53041;BME280;39326;42.650;23.248;2022-09-27T08:13:01;91544.13;;;14.27;91.02
53041;BME280;39326;42.650;23.248;2022-09-27T08:15:28;91538.00;;;14.26;91.43
53041;BME280;39326;42.650;23.248;2022-09-27T08:17:55;91532.75;;;14.35;91.07
53041;BME280;39326;42.650;23.248;2022-09-27T08:20:20;91553.88;;;14.33;92.16
53041;BME280;39326;42.650;23.248;2022-09-27T08:22:46;91553.44;;;14.22;92.43
53041;BME280;39326;42.650;23.248;2022-09-27T08:25:11;91550.22;;;14.40;91.87
53041;BME280;39326;42.650;23.248;2022-09-27T08:27:38;91536.94;;;14.36;92.43
53041;BME280;39326;42.650;23.248;2022-09-27T08:30:04;91525.25;;;14.43;91.81
53041;BME280;39326;42.650;23.248;2022-09-27T08:32:30;91532.84;;;14.45;92.47
53041;BME280;39326;42.650;23.248;2022-09-27T08:34:56;91525.00;;;14.50;92.39
53041;BME280;39326;42.650;23.248;2022-09-27T08:37:21;91526.72;;;14.57;92.17
53041;BME280;39326;42.650;23.248;2022-09-27T08:39:47;91529.47;;;14.66;92.08
53041;BME280;39326;42.650;23.248;2022-09-27T08:42:50;91533.09;;;14.72;92.13
53041;BME280;39326;42.650;23.248;2022-09-27T08:45:19;91537.94;;;14.77;92.30
53041;BME280;39326;42.650;23.248;2022-09-27T08:47:59;91532.13;;;14.79;91.81
53041;BME280;39326;42.650;23.248;2022-09-27T08:50:31;91532.66;;;14.86;91.56
53041;BME280;39326;42.650;23.248;2022-09-27T08:53:05;91526.84;;;15.01;90.81
53041;BME280;39326;42.650;23.248;2022-09-27T08:55:36;91525.16;;;15.16;90.73
53041;BME280;39326;42.650;23.248;2022-09-27T09:00:53;91526.09;;;15.44;90.53
53041;BME280;39326;42.650;23.248;2022-09-27T09:03:22;91509.16;;;15.56;90.15
53041;BME280;39326;42.650;23.248;2022-09-27T09:06:01;91501.53;;;15.86;90.75
53041;BME280;39326;42.650;23.248;2022-09-27T09:09:10;91512.28;;;16.08;91.41
53041;BME280;39326;42.650;23.248;2022-09-27T09:30:43;91517.44;;;15.71;88.46
53041;BME280;39326;42.650;23.248;2022-09-27T09:33:25;91503.75;;;15.78;87.93
53041;BME280;39326;42.650;23.248;2022-09-27T09:36:08;91501.53;;;15.86;87.98
53041;BME280;39326;42.650;23.248;2022-09-27T09:38:46;91500.31;;;15.78;90.01
53041;BME280;39326;42.650;23.248;2022-09-27T09:41:21;91496.59;;;15.84;90.03
53041;BME280;39326;42.650;23.248;2022-09-27T09:46:23;91516.28;;;16.03;90.45
53041;BME280;39326;42.650;23.248;2022-09-27T09:51:37;91523.69;;;16.30;88.73
53041;BME280;39326;42.650;23.248;2022-09-27T09:59:46;91522.38;;;16.25;88.59
53041;BME280;39326;42.650;23.248;2022-09-27T10:04:46;91524.44;;;16.21;89.12
53041;BME280;39326;42.650;23.248;2022-09-27T10:07:19;91499.44;;;16.12;89.23
53041;BME280;39326;42.650;23.248;2022-09-27T10:09:45;91524.25;;;16.16;89.25
53041;BME280;39326;42.650;23.248;2022-09-27T10:12:11;91515.63;;;16.30;88.33
53041;BME280;39326;42.650;23.248;2022-09-27T10:14:37;91522.72;;;16.46;87.52
53041;BME280;39326;42.650;23.248;2022-09-27T10:17:05;91514.22;;;16.57;87.42
53041;BME280;39326;42.650;23.248;2022-09-27T10:19:35;91500.63;;;16.69;86.70
53041;BME280;39326;42.650;23.248;2022-09-27T10:22:10;91503.19;;;16.82;85.81
53041;BME280;39326;42.650;23.248;2022-09-27T10:24:53;91495.88;;;16.83;85.29
53041;BME280;39326;42.650;23.248;2022-09-27T10:27:20;91510.06;;;16.83;85.76
53041;BME280;39326;42.650;23.248;2022-09-27T10:29:45;91496.78;;;16.89;85.81
53041;BME280;39326;42.650;23.248;2022-09-27T10:32:21;91489.28;;;16.84;86.13
53041;BME280;39326;42.650;23.248;2022-09-27T10:34:47;91481.84;;;16.88;86.28
53041;BME280;39326;42.650;23.248;2022-09-27T10:37:22;91479.41;;;16.99;86.58
53041;BME280;39326;42.650;23.248;2022-09-27T10:39:49;91467.16;;;16.89;86.63
53041;BME280;39326;42.650;23.248;2022-09-27T10:42:30;91477.88;;;16.79;87.36
53041;BME280;39326;42.650;23.248;2022-09-27T10:45:31;91480.03;;;17.21;88.92
53041;BME280;39326;42.650;23.248;2022-09-27T10:47:58;91461.31;;;17.09;87.45
53041;BME280;39326;42.650;23.248;2022-09-27T10:50:30;91472.97;;;17.33;86.53
53041;BME280;39326;42.650;23.248;2022-09-27T10:53:12;91435.72;;;17.22;86.98
53041;BME280;39326;42.650;23.248;2022-09-27T10:55:39;91438.41;;;17.31;86.47
53041;BME280;39326;42.650;23.248;2022-09-27T10:58:19;91442.53;;;17.51;87.37
53041;BME280;39326;42.650;23.248;2022-09-27T11:01:00;91433.59;;;17.87;86.63
53041;BME280;39326;42.650;23.248;2022-09-27T11:03:32;91443.97;;;17.89;86.17
53041;BME280;39326;42.650;23.248;2022-09-27T11:06:18;91429.59;;;18.16;85.62
53041;BME280;39326;42.650;23.248;2022-09-27T11:08:43;91423.47;;;18.06;85.03
53041;BME280;39326;42.650;23.248;2022-09-27T11:13:38;91437.75;;;18.54;83.61
53041;BME280;39326;42.650;23.248;2022-09-27T11:16:38;91443.09;;;18.87;83.41
53041;BME280;39326;42.650;23.248;2022-09-27T11:21:52;91443.69;;;19.60;81.15
53041;BME280;39326;42.650;23.248;2022-09-27T11:30:57;91442.69;;;20.07;77.41
53041;BME280;39326;42.650;23.248;2022-09-27T11:33:34;91413.53;;;20.32;78.03
53041;BME280;39326;42.650;23.248;2022-09-27T11:36:12;91415.09;;;20.38;75.81
53041;BME280;39326;42.650;23.248;2022-09-27T11:39:01;91415.69;;;20.27;73.67
53041;BME280;39326;42.650;23.248;2022-09-27T11:46:48;91379.06;;;19.97;74.81
53041;BME280;39326;42.650;23.248;2022-09-27T11:57:19;91369.34;;;19.70;71.85
53041;BME280;39326;42.650;23.248;2022-09-27T12:10:53;91339.41;;;20.49;65.39
53041;BME280;39326;42.650;23.248;2022-09-27T12:13:47;91350.09;;;20.79;64.63
53041;BME280;39326;42.650;23.248;2022-09-27T12:16:15;91354.97;;;21.21;65.91
53041;BME280;39326;42.650;23.248;2022-09-27T12:18:43;91344.72;;;21.37;67.28
53041;BME280;39326;42.650;23.248;2022-09-27T12:21:10;91342.72;;;21.31;67.67
53041;BME280;39326;42.650;23.248;2022-09-27T12:26:15;91307.13;;;21.87;66.68
53041;BME280;39326;42.650;23.248;2022-09-27T12:29:01;91297.56;;;21.97;58.06
53041;BME280;39326;42.650;23.248;2022-09-27T12:32:16;91294.19;;;22.13;57.50
53041;BME280;39326;42.650;23.248;2022-09-27T12:34:34;91280.63;;;22.19;58.82
53041;BME280;39326;42.650;23.248;2022-09-27T12:37:26;91273.50;;;22.22;56.61
53041;BME280;39326;42.650;23.248;2022-09-27T12:40:05;91270.59;;;22.42;58.78
53041;BME280;39326;42.650;23.248;2022-09-27T12:45:26;91264.31;;;22.79;57.12
53041;BME280;39326;42.650;23.248;2022-09-27T12:50:53;91262.06;;;22.66;57.39
53041;BME280;39326;42.650;23.248;2022-09-27T12:53:24;91246.22;;;22.59;54.88
53041;BME280;39326;42.650;23.248;2022-09-27T13:12:17;91271.31;;;21.83;51.98
53041;BME280;39326;42.650;23.248;2022-09-27T13:15:05;91273.31;;;21.88;53.76
53041;BME280;39326;42.650;23.248;2022-09-27T13:22:56;91272.22;;;21.37;55.23
53041;BME280;39326;42.650;23.248;2022-09-27T13:30:52;91243.22;;;21.49;55.64
53041;BME280;39326;42.650;23.248;2022-09-27T13:46:50;91264.03;;;21.63;53.95
53041;BME280;39326;42.650;23.248;2022-09-27T13:51:58;91289.16;;;21.26;54.01
53041;BME280;39326;42.650;23.248;2022-09-27T13:54:52;91299.19;;;21.15;53.52
53041;BME280;39326;42.650;23.248;2022-09-27T13:57:51;91301.41;;;20.90;54.13
53041;BME280;39326;42.650;23.248;2022-09-27T14:00:32;91282.38;;;20.85;54.65
53041;BME280;39326;42.650;23.248;2022-09-27T14:05:35;91313.88;;;20.82;55.21
53041;BME280;39326;42.650;23.248;2022-09-27T14:08:03;91280.72;;;20.67;55.45
53041;BME280;39326;42.650;23.248;2022-09-27T14:10:30;91291.50;;;20.61;56.54
53041;BME280;39326;42.650;23.248;2022-09-27T14:12:57;91276.00;;;20.62;56.67
53041;BME280;39326;42.650;23.248;2022-09-27T14:15:26;91280.94;;;20.63;56.14
53041;BME280;39326;42.650;23.248;2022-09-27T14:17:53;91274.44;;;20.55;56.83
53041;BME280;39326;42.650;23.248;2022-09-27T14:20:35;91273.50;;;20.58;57.43
53041;BME280;39326;42.650;23.248;2022-09-27T14:23:01;91282.00;;;20.45;57.51
53041;BME280;39326;42.650;23.248;2022-09-27T14:25:28;91284.22;;;20.26;58.83
53041;BME280;39326;42.650;23.248;2022-09-27T14:27:53;91283.13;;;20.18;58.15
53041;BME280;39326;42.650;23.248;2022-09-27T14:30:24;91267.16;;;20.20;58.68
53041;BME280;39326;42.650;23.248;2022-09-27T14:32:51;91251.53;;;20.10;58.35
53041;BME280;39326;42.650;23.248;2022-09-27T14:35:27;91250.97;;;20.26;57.44
53041;BME280;39326;42.650;23.248;2022-09-27T14:38:29;91252.91;;;20.25;57.13
53041;BME280;39326;42.650;23.248;2022-09-27T14:41:04;91263.75;;;20.25;57.79
53041;BME280;39326;42.650;23.248;2022-09-27T14:43:31;91242.38;;;20.07;58.04
53041;BME280;39326;42.650;23.248;2022-09-27T14:46:00;91236.69;;;20.05;58.18
53041;BME280;39326;42.650;23.248;2022-09-27T14:48:30;91243.28;;;19.98;57.46
53041;BME280;39326;42.650;23.248;2022-09-27T14:53:35;91258.50;;;19.96;58.03
53041;BME280;39326;42.650;23.248;2022-09-27T14:56:01;91257.69;;;19.90;58.58
53041;BME280;39326;42.650;23.248;2022-09-27T14:58:28;91263.34;;;19.71;59.81
53041;BME280;39326;42.650;23.248;2022-09-27T15:00:55;91259.47;;;19.43;59.80
53041;BME280;39326;42.650;23.248;2022-09-27T15:03:25;91352.28;;;19.49;58.98
53041;BME280;39326;42.650;23.248;2022-09-27T15:05:54;91389.00;;;18.97;61.72
53041;BME280;39326;42.650;23.248;2022-09-27T15:08:22;91403.69;;;17.67;67.79
53041;BME280;39326;42.650;23.248;2022-09-27T15:10:49;91421.94;;;17.11;68.12
53041;BME280;39326;42.650;23.248;2022-09-27T15:13:17;91379.47;;;16.60;70.14
53041;BME280;39326;42.650;23.248;2022-09-27T15:15:43;91395.31;;;16.40;71.17
53041;BME280;39326;42.650;23.248;2022-09-27T15:18:32;91388.13;;;16.18;72.10
53041;BME280;39326;42.650;23.248;2022-09-27T15:20:59;91412.38;;;15.87;71.97
53041;BME280;39326;42.650;23.248;2022-09-27T15:23:27;91443.06;;;15.68;71.85
53041;BME280;39326;42.650;23.248;2022-09-27T15:26:19;91442.25;;;15.49;73.77
53041;BME280;39326;42.650;23.248;2022-09-27T15:28:49;91409.91;;;15.31;72.53
53041;BME280;39326;42.650;23.248;2022-09-27T15:31:16;91399.50;;;15.11;74.54
53041;BME280;39326;42.650;23.248;2022-09-27T15:33:52;91381.19;;;14.97;76.38
53041;BME280;39326;42.650;23.248;2022-09-27T15:36:49;91405.25;;;15.00;76.21
53041;BME280;39326;42.650;23.248;2022-09-27T15:39:18;91410.63;;;15.00;76.12
53041;BME280;39326;42.650;23.248;2022-09-27T15:42:05;91447.16;;;14.85;78.49
53041;BME280;39326;42.650;23.248;2022-09-27T15:44:53;91411.03;;;14.55;79.71
53041;BME280;39326;42.650;23.248;2022-09-27T15:55:16;91382.91;;;14.47;82.95
53041;BME280;39326;42.650;23.248;2022-09-27T15:57:45;91381.91;;;14.31;84.65
53041;BME280;39326;42.650;23.248;2022-09-27T16:00:16;91378.53;;;14.18;83.08
53041;BME280;39326;42.650;23.248;2022-09-27T16:02:42;91374.69;;;14.06;82.35
53041;BME280;39326;42.650;23.248;2022-09-27T16:05:07;91398.94;;;14.03;82.69